sensor_id;sensor_type;location;lat;lon;timestamp;temperature;humidity
67748;HTU21D;54543;50.712;6.070;2023-04-25T00:01:38;7.43;81.15
67748;HTU21D;54543;50.712;6.070;2023-04-25T00:04:04;7.44;81.32
67748;HTU21D;54543;50.712;6.070;2023-04-25T00:06:32;7.43;81.20
67748;HTU21D;54543;50.712;6.070;2023-04-25T00:08:57;7.40;81.25
67748;HTU21D;54543;50.712;6.070;2023-04-25T00:11:23;7.38;81.49
67748;HTU21D;54543;50.712;6.070;2023-04-25T00:13:49;7.38;81.48
67748;HTU21D;54543;50.712;6.070;2023-04-25T00:16:18;7.35;81.53
67748;HTU21D;54543;50.712;6.070;2023-04-25T00:18:43;7.34;81.70
67748;HTU21D;54543;50.712;6.070;2023-04-25T00:21:11;7.32;81.49
67748;HTU21D;54543;50.712;6.070;2023-04-25T00:23:37;7.30;81.56
67748;HTU21D;54543;50.712;6.070;2023-04-25T00:26:04;7.31;81.84
67748;HTU21D;54543;50.712;6.070;2023-04-25T00:28:29;7.31;82.04
67748;HTU21D;54543;50.712;6.070;2023-04-25T00:30:55;7.32;82.09
67748;HTU21D;54543;50.712;6.070;2023-04-25T00:33:21;7.32;81.90
67748;HTU21D;54543;50.712;6.070;2023-04-25T00:35:46;7.32;82.04
67748;HTU21D;54543;50.712;6.070;2023-04-25T00:38:12;7.31;81.97
67748;HTU21D;54543;50.712;6.070;2023-04-25T00:40:38;7.30;81.97
67748;HTU21D;54543;50.712;6.070;2023-04-25T00:43:03;7.29;82.02
67748;HTU21D;54543;50.712;6.070;2023-04-25T00:45:29;7.28;81.87
67748;HTU21D;54543;50.712;6.070;2023-04-25T00:47:55;7.25;81.88
67748;HTU21D;54543;50.712;6.070;2023-04-25T00:50:21;7.19;81.91
67748;HTU21D;54543;50.712;6.070;2023-04-25T00:52:46;7.15;82.09
67748;HTU21D;54543;50.712;6.070;2023-04-25T00:55:12;7.12;82.26
67748;HTU21D;54543;50.712;6.070;2023-04-25T00:57:38;7.12;82.50
67748;HTU21D;54543;50.712;6.070;2023-04-25T01:00:05;7.13;82.58
67748;HTU21D;54543;50.712;6.070;2023-04-25T01:02:33;7.15;82.40
67748;HTU21D;54543;50.712;6.070;2023-04-25T01:04:59;7.15;82.43
67748;HTU21D;54543;50.712;6.070;2023-04-25T01:07:25;7.16;82.48
67748;HTU21D;54543;50.712;6.070;2023-04-25T01:09:52;7.14;82.42
67748;HTU21D;54543;50.712;6.070;2023-04-25T01:12:17;7.08;82.18
67748;HTU21D;54543;50.712;6.070;2023-04-25T01:14:43;7.01;82.34
67748;HTU21D;54543;50.712;6.070;2023-04-25T01:17:10;6.97;82.48
67748;HTU21D;54543;50.712;6.070;2023-04-25T01:19:36;6.90;82.75
67748;HTU21D;54543;50.712;6.070;2023-04-25T01:22:02;6.86;83.04
67748;HTU21D;54543;50.712;6.070;2023-04-25T01:24:29;6.84;83.26
67748;HTU21D;54543;50.712;6.070;2023-04-25T01:26:55;6.85;83.10
67748;HTU21D;54543;50.712;6.070;2023-04-25T01:29:22;6.85;82.98
67748;HTU21D;54543;50.712;6.070;2023-04-25T01:31:48;6.84;82.75
67748;HTU21D;54543;50.712;6.070;2023-04-25T01:34:14;6.84;82.86
67748;HTU21D;54543;50.712;6.070;2023-04-25T01:36:39;6.84;82.71
67748;HTU21D;54543;50.712;6.070;2023-04-25T01:39:06;6.83;82.47
67748;HTU21D;54543;50.712;6.070;2023-04-25T01:41:32;6.83;82.75
67748;HTU21D;54543;50.712;6.070;2023-04-25T01:43:57;6.85;82.55
67748;HTU21D;54543;50.712;6.070;2023-04-25T01:46:23;6.85;82.55
67748;HTU21D;54543;50.712;6.070;2023-04-25T01:48:49;6.84;82.28
67748;HTU21D;54543;50.712;6.070;2023-04-25T01:51:15;6.80;82.00
67748;HTU21D;54543;50.712;6.070;2023-04-25T01:53:40;6.79;82.49
67748;HTU21D;54543;50.712;6.070;2023-04-25T01:56:06;6.79;82.28
67748;HTU21D;54543;50.712;6.070;2023-04-25T01:58:32;6.79;82.52
67748;HTU21D;54543;50.712;6.070;2023-04-25T02:00:58;6.74;82.20
67748;HTU21D;54543;50.712;6.070;2023-04-25T02:03:23;6.71;82.38
67748;HTU21D;54543;50.712;6.070;2023-04-25T02:05:49;6.71;82.65
67748;HTU21D;54543;50.712;6.070;2023-04-25T02:08:16;6.74;82.77
67748;HTU21D;54543;50.712;6.070;2023-04-25T02:10:42;6.78;82.70
67748;HTU21D;54543;50.712;6.070;2023-04-25T02:13:08;6.78;82.10
67748;HTU21D;54543;50.712;6.070;2023-04-25T02:15:33;6.75;82.14
67748;HTU21D;54543;50.712;6.070;2023-04-25T02:17:59;6.76;82.51
67748;HTU21D;54543;50.712;6.070;2023-04-25T02:20:29;6.80;82.52
67748;HTU21D;54543;50.712;6.070;2023-04-25T02:22:55;6.81;82.64
67748;HTU21D;54543;50.712;6.070;2023-04-25T02:25:22;6.85;82.72
67748;HTU21D;54543;50.712;6.070;2023-04-25T02:27:48;6.85;82.71
67748;HTU21D;54543;50.712;6.070;2023-04-25T02:30:14;6.83;82.28
67748;HTU21D;54543;50.712;6.070;2023-04-25T02:32:40;6.76;82.58
67748;HTU21D;54543;50.712;6.070;2023-04-25T02:35:06;6.74;82.36
67748;HTU21D;54543;50.712;6.070;2023-04-25T02:37:33;6.71;82.42
67748;HTU21D;54543;50.712;6.070;2023-04-25T02:40:00;6.70;82.51
67748;HTU21D;54543;50.712;6.070;2023-04-25T02:42:26;6.68;82.45
67748;HTU21D;54543;50.712;6.070;2023-04-25T02:44:52;6.68;82.58
67748;HTU21D;54543;50.712;6.070;2023-04-25T02:47:18;6.67;82.65
67748;HTU21D;54543;50.712;6.070;2023-04-25T02:49:45;6.66;82.80
67748;HTU21D;54543;50.712;6.070;2023-04-25T02:52:11;6.68;83.08
67748;HTU21D;54543;50.712;6.070;2023-04-25T02:54:38;6.67;83.05
67748;HTU21D;54543;50.712;6.070;2023-04-25T02:57:03;6.68;83.23
67748;HTU21D;54543;50.712;6.070;2023-04-25T02:59:29;6.68;83.26
67748;HTU21D;54543;50.712;6.070;2023-04-25T03:01:54;6.67;83.16
67748;HTU21D;54543;50.712;6.070;2023-04-25T03:04:20;6.67;83.43
67748;HTU21D;54543;50.712;6.070;2023-04-25T03:06:46;6.67;83.51
67748;HTU21D;54543;50.712;6.070;2023-04-25T03:09:12;6.65;83.24
67748;HTU21D;54543;50.712;6.070;2023-04-25T03:11:38;6.64;83.42
67748;HTU21D;54543;50.712;6.070;2023-04-25T03:14:04;6.60;83.58
67748;HTU21D;54543;50.712;6.070;2023-04-25T03:16:30;6.57;83.70
67748;HTU21D;54543;50.712;6.070;2023-04-25T03:18:56;6.51;83.88
67748;HTU21D;54543;50.712;6.070;2023-04-25T03:21:22;6.49;83.87
67748;HTU21D;54543;50.712;6.070;2023-04-25T03:23:48;6.51;84.07
67748;HTU21D;54543;50.712;6.070;2023-04-25T03:26:13;6.48;83.80
67748;HTU21D;54543;50.712;6.070;2023-04-25T03:28:39;6.46;84.07
67748;HTU21D;54543;50.712;6.070;2023-04-25T03:31:05;6.46;84.07
67748;HTU21D;54543;50.712;6.070;2023-04-25T03:33:31;6.49;84.32
67748;HTU21D;54543;50.712;6.070;2023-04-25T03:35:57;6.50;84.18
67748;HTU21D;54543;50.712;6.070;2023-04-25T03:38:22;6.51;84.31
67748;HTU21D;54543;50.712;6.070;2023-04-25T03:40:50;6.52;84.02
67748;HTU21D;54543;50.712;6.070;2023-04-25T03:43:16;6.50;84.07
67748;HTU21D;54543;50.712;6.070;2023-04-25T03:45:42;6.46;84.45
67748;HTU21D;54543;50.712;6.070;2023-04-25T03:48:07;6.46;84.48
67748;HTU21D;54543;50.712;6.070;2023-04-25T03:50:33;6.44;84.47
67748;HTU21D;54543;50.712;6.070;2023-04-25T03:52:59;6.44;84.45
67748;HTU21D;54543;50.712;6.070;2023-04-25T03:55:25;6.45;84.32
67748;HTU21D;54543;50.712;6.070;2023-04-25T03:57:50;6.45;84.40
67748;HTU21D;54543;50.712;6.070;2023-04-25T04:00:16;6.45;84.50
67748;HTU21D;54543;50.712;6.070;2023-04-25T04:02:42;6.43;84.38
67748;HTU21D;54543;50.712;6.070;2023-04-25T04:05:07;6.45;84.54
67748;HTU21D;54543;50.712;6.070;2023-04-25T04:07:33;6.46;84.68
67748;HTU21D;54543;50.712;6.070;2023-04-25T04:10:02;6.45;84.52
67748;HTU21D;54543;50.712;6.070;2023-04-25T04:12:27;6.43;84.29
67748;HTU21D;54543;50.712;6.070;2023-04-25T04:14:53;6.45;84.61
67748;HTU21D;54543;50.712;6.070;2023-04-25T04:17:18;6.48;84.58
67748;HTU21D;54543;50.712;6.070;2023-04-25T04:19:44;6.51;84.59
67748;HTU21D;54543;50.712;6.070;2023-04-25T04:22:10;6.52;84.68
67748;HTU21D;54543;50.712;6.070;2023-04-25T04:24:35;6.53;84.42
67748;HTU21D;54543;50.712;6.070;2023-04-25T04:27:01;6.54;84.19
67748;HTU21D;54543;50.712;6.070;2023-04-25T04:29:27;6.55;84.17
67748;HTU21D;54543;50.712;6.070;2023-04-25T04:31:52;6.55;83.73
67748;HTU21D;54543;50.712;6.070;2023-04-25T04:34:19;6.52;83.60
67748;HTU21D;54543;50.712;6.070;2023-04-25T04:36:45;6.49;83.46
67748;HTU21D;54543;50.712;6.070;2023-04-25T04:39:12;6.46;83.39
67748;HTU21D;54543;50.712;6.070;2023-04-25T04:41:37;6.43;83.33
67748;HTU21D;54543;50.712;6.070;2023-04-25T04:44:04;6.39;83.21
67748;HTU21D;54543;50.712;6.070;2023-04-25T04:46:32;6.39;83.58
67748;HTU21D;54543;50.712;6.070;2023-04-25T04:49:04;6.38;83.57
67748;HTU21D;54543;50.712;6.070;2023-04-25T04:51:30;6.38;83.56
67748;HTU21D;54543;50.712;6.070;2023-04-25T04:53:56;6.39;83.78
67748;HTU21D;54543;50.712;6.070;2023-04-25T04:56:24;6.44;83.78
67748;HTU21D;54543;50.712;6.070;2023-04-25T04:58:51;6.45;83.42
67748;HTU21D;54543;50.712;6.070;2023-04-25T05:01:17;6.46;83.59
67748;HTU21D;54543;50.712;6.070;2023-04-25T05:03:43;6.48;83.52
67748;HTU21D;54543;50.712;6.070;2023-04-25T05:06:09;6.50;83.58
67748;HTU21D;54543;50.712;6.070;2023-04-25T05:08:35;6.50;83.45
67748;HTU21D;54543;50.712;6.070;2023-04-25T05:11:01;6.44;83.70
67748;HTU21D;54543;50.712;6.070;2023-04-25T05:13:27;6.42;83.24
67748;HTU21D;54543;50.712;6.070;2023-04-25T05:15:53;6.42;83.41
67748;HTU21D;54543;50.712;6.070;2023-04-25T05:18:18;6.44;83.48
67748;HTU21D;54543;50.712;6.070;2023-04-25T05:20:44;6.50;83.58
67748;HTU21D;54543;50.712;6.070;2023-04-25T05:23:10;6.52;83.39
67748;HTU21D;54543;50.712;6.070;2023-04-25T05:25:35;6.54;83.36
67748;HTU21D;54543;50.712;6.070;2023-04-25T05:28:01;6.58;83.05
67748;HTU21D;54543;50.712;6.070;2023-04-25T05:30:26;6.60;83.15
67748;HTU21D;54543;50.712;6.070;2023-04-25T05:32:52;6.65;83.42
67748;HTU21D;54543;50.712;6.070;2023-04-25T05:35:18;6.73;83.45
67748;HTU21D;54543;50.712;6.070;2023-04-25T05:37:43;6.80;83.20
67748;HTU21D;54543;50.712;6.070;2023-04-25T05:40:09;6.84;82.99
67748;HTU21D;54543;50.712;6.070;2023-04-25T05:42:35;6.87;82.84
67748;HTU21D;54543;50.712;6.070;2023-04-25T05:45:01;6.93;82.79
67748;HTU21D;54543;50.712;6.070;2023-04-25T05:47:26;6.98;82.76
67748;HTU21D;54543;50.712;6.070;2023-04-25T05:49:52;7.00;82.33
67748;HTU21D;54543;50.712;6.070;2023-04-25T05:52:18;7.03;82.44
67748;HTU21D;54543;50.712;6.070;2023-04-25T05:54:43;7.08;82.63
67748;HTU21D;54543;50.712;6.070;2023-04-25T05:57:19;7.13;81.87
67748;HTU21D;54543;50.712;6.070;2023-04-25T05:59:45;7.18;82.05
67748;HTU21D;54543;50.712;6.070;2023-04-25T06:02:11;7.25;81.72
67748;HTU21D;54543;50.712;6.070;2023-04-25T06:04:36;7.28;81.68
67748;HTU21D;54543;50.712;6.070;2023-04-25T06:07:02;7.31;81.49
67748;HTU21D;54543;50.712;6.070;2023-04-25T06:09:27;7.35;81.37
67748;HTU21D;54543;50.712;6.070;2023-04-25T06:11:53;7.41;81.00
67748;HTU21D;54543;50.712;6.070;2023-04-25T06:14:18;7.42;80.78
67748;HTU21D;54543;50.712;6.070;2023-04-25T06:16:44;7.42;81.01
67748;HTU21D;54543;50.712;6.070;2023-04-25T06:19:10;7.42;80.88
67748;HTU21D;54543;50.712;6.070;2023-04-25T06:21:35;7.42;80.67
67748;HTU21D;54543;50.712;6.070;2023-04-25T06:24:01;7.39;79.79
67748;HTU21D;54543;50.712;6.070;2023-04-25T06:26:26;7.39;79.40
67748;HTU21D;54543;50.712;6.070;2023-04-25T06:28:52;7.31;79.40
67748;HTU21D;54543;50.712;6.070;2023-04-25T06:31:18;7.33;80.49
67748;HTU21D;54543;50.712;6.070;2023-04-25T06:33:43;7.38;79.87
67748;HTU21D;54543;50.712;6.070;2023-04-25T06:36:09;7.39;80.03
67748;HTU21D;54543;50.712;6.070;2023-04-25T06:38:35;7.42;80.27
67748;HTU21D;54543;50.712;6.070;2023-04-25T06:41:01;7.45;79.77
67748;HTU21D;54543;50.712;6.070;2023-04-25T06:43:26;7.45;79.26
67748;HTU21D;54543;50.712;6.070;2023-04-25T06:45:52;7.37;74.96
67748;HTU21D;54543;50.712;6.070;2023-04-25T06:48:18;7.27;76.52
67748;HTU21D;54543;50.712;6.070;2023-04-25T06:50:44;7.22;78.53
67748;HTU21D;54543;50.712;6.070;2023-04-25T06:53:10;7.19;78.72
67748;HTU21D;54543;50.712;6.070;2023-04-25T06:55:36;7.15;78.95
67748;HTU21D;54543;50.712;6.070;2023-04-25T06:58:02;7.17;79.69
67748;HTU21D;54543;50.712;6.070;2023-04-25T07:00:28;7.25;79.33
67748;HTU21D;54543;50.712;6.070;2023-04-25T07:02:54;7.29;78.25
67748;HTU21D;54543;50.712;6.070;2023-04-25T07:05:19;7.29;77.61
67748;HTU21D;54543;50.712;6.070;2023-04-25T07:07:45;7.34;78.11
67748;HTU21D;54543;50.712;6.070;2023-04-25T07:10:11;7.40;77.40
67748;HTU21D;54543;50.712;6.070;2023-04-25T07:12:36;7.43;76.66
67748;HTU21D;54543;50.712;6.070;2023-04-25T07:15:02;7.42;76.62
67748;HTU21D;54543;50.712;6.070;2023-04-25T07:17:31;7.46;76.35
67748;HTU21D;54543;50.712;6.070;2023-04-25T07:19:57;7.56;76.67
67748;HTU21D;54543;50.712;6.070;2023-04-25T07:22:23;7.58;74.77
67748;HTU21D;54543;50.712;6.070;2023-04-25T07:24:49;7.61;76.53
67748;HTU21D;54543;50.712;6.070;2023-04-25T07:27:15;7.68;74.69
67748;HTU21D;54543;50.712;6.070;2023-04-25T07:29:41;7.71;75.31
67748;HTU21D;54543;50.712;6.070;2023-04-25T07:32:07;7.78;75.95
67748;HTU21D;54543;50.712;6.070;2023-04-25T07:34:32;7.85;75.46
67748;HTU21D;54543;50.712;6.070;2023-04-25T07:37:02;7.94;75.74
67748;HTU21D;54543;50.712;6.070;2023-04-25T07:39:28;7.97;73.47
67748;HTU21D;54543;50.712;6.070;2023-04-25T07:41:53;7.92;74.53
67748;HTU21D;54543;50.712;6.070;2023-04-25T07:44:19;7.94;74.71
67748;HTU21D;54543;50.712;6.070;2023-04-25T07:46:45;7.96;74.87
67748;HTU21D;54543;50.712;6.070;2023-04-25T07:49:11;7.99;74.29
67748;HTU21D;54543;50.712;6.070;2023-04-25T07:51:36;7.92;73.63
67748;HTU21D;54543;50.712;6.070;2023-04-25T07:54:03;7.84;73.25
67748;HTU21D;54543;50.712;6.070;2023-04-25T07:56:30;7.78;74.92
67748;HTU21D;54543;50.712;6.070;2023-04-25T07:58:56;7.83;74.80
67748;HTU21D;54543;50.712;6.070;2023-04-25T08:01:21;7.85;74.73
67748;HTU21D;54543;50.712;6.070;2023-04-25T08:03:47;7.90;74.11
67748;HTU21D;54543;50.712;6.070;2023-04-25T08:06:13;7.91;73.34
67748;HTU21D;54543;50.712;6.070;2023-04-25T08:08:38;7.84;74.06
67748;HTU21D;54543;50.712;6.070;2023-04-25T08:11:04;7.82;73.44
67748;HTU21D;54543;50.712;6.070;2023-04-25T08:13:29;7.68;72.42
67748;HTU21D;54543;50.712;6.070;2023-04-25T08:15:55;7.57;73.63
67748;HTU21D;54543;50.712;6.070;2023-04-25T08:18:21;7.50;74.33
67748;HTU21D;54543;50.712;6.070;2023-04-25T08:20:46;7.48;75.06
67748;HTU21D;54543;50.712;6.070;2023-04-25T08:23:12;7.46;74.28
67748;HTU21D;54543;50.712;6.070;2023-04-25T08:25:38;7.56;75.31
67748;HTU21D;54543;50.712;6.070;2023-04-25T08:28:05;7.67;74.00
67748;HTU21D;54543;50.712;6.070;2023-04-25T08:30:31;7.75;73.32
67748;HTU21D;54543;50.712;6.070;2023-04-25T08:32:56;7.78;72.62
67748;HTU21D;54543;50.712;6.070;2023-04-25T08:35:23;7.78;73.47
67748;HTU21D;54543;50.712;6.070;2023-04-25T08:37:48;7.73;73.61
67748;HTU21D;54543;50.712;6.070;2023-04-25T08:40:15;7.75;72.89
67748;HTU21D;54543;50.712;6.070;2023-04-25T08:42:41;7.76;73.19
67748;HTU21D;54543;50.712;6.070;2023-04-25T08:45:08;7.86;74.33
67748;HTU21D;54543;50.712;6.070;2023-04-25T08:47:34;7.94;74.03
67748;HTU21D;54543;50.712;6.070;2023-04-25T08:50:04;8.07;73.33
67748;HTU21D;54543;50.712;6.070;2023-04-25T08:52:36;8.13;73.15
67748;HTU21D;54543;50.712;6.070;2023-04-25T08:55:04;8.22;73.06
67748;HTU21D;54543;50.712;6.070;2023-04-25T08:57:33;8.28;72.89
67748;HTU21D;54543;50.712;6.070;2023-04-25T09:00:00;8.38;72.98
67748;HTU21D;54543;50.712;6.070;2023-04-25T09:02:26;8.64;72.22
67748;HTU21D;54543;50.712;6.070;2023-04-25T09:04:53;8.93;70.42
67748;HTU21D;54543;50.712;6.070;2023-04-25T09:07:20;9.17;71.10
67748;HTU21D;54543;50.712;6.070;2023-04-25T09:09:46;9.32;70.73
67748;HTU21D;54543;50.712;6.070;2023-04-25T09:12:12;9.40;69.71
67748;HTU21D;54543;50.712;6.070;2023-04-25T09:14:38;9.44;70.16
67748;HTU21D;54543;50.712;6.070;2023-04-25T09:17:04;9.45;69.33
67748;HTU21D;54543;50.712;6.070;2023-04-25T09:19:34;9.40;69.95
67748;HTU21D;54543;50.712;6.070;2023-04-25T09:22:02;9.36;69.20
67748;HTU21D;54543;50.712;6.070;2023-04-25T09:27:05;9.16;69.73
67748;HTU21D;54543;50.712;6.070;2023-04-25T09:29:36;9.00;68.51
67748;HTU21D;54543;50.712;6.070;2023-04-25T09:32:22;8.89;68.50
67748;HTU21D;54543;50.712;6.070;2023-04-25T09:34:53;8.86;70.67
67748;HTU21D;54543;50.712;6.070;2023-04-25T09:39:52;8.81;70.76
67748;HTU21D;54543;50.712;6.070;2023-04-25T09:42:22;8.87;69.48
67748;HTU21D;54543;50.712;6.070;2023-04-25T09:44:51;8.89;67.71
67748;HTU21D;54543;50.712;6.070;2023-04-25T09:47:17;8.85;68.58
67748;HTU21D;54543;50.712;6.070;2023-04-25T09:49:43;8.87;70.29
67748;HTU21D;54543;50.712;6.070;2023-04-25T09:52:17;8.90;67.36
67748;HTU21D;54543;50.712;6.070;2023-04-25T09:54:44;8.90;67.35
67748;HTU21D;54543;50.712;6.070;2023-04-25T09:57:12;8.81;68.94
67748;HTU21D;54543;50.712;6.070;2023-04-25T09:59:43;8.80;69.63
67748;HTU21D;54543;50.712;6.070;2023-04-25T10:02:10;8.86;70.39
67748;HTU21D;54543;50.712;6.070;2023-04-25T10:04:38;8.82;69.27
67748;HTU21D;54543;50.712;6.070;2023-04-25T10:07:06;8.72;68.19
67748;HTU21D;54543;50.712;6.070;2023-04-25T10:09:33;8.59;68.65
67748;HTU21D;54543;50.712;6.070;2023-04-25T10:11:59;8.50;68.56
67748;HTU21D;54543;50.712;6.070;2023-04-25T10:14:26;8.41;67.30
67748;HTU21D;54543;50.712;6.070;2023-04-25T10:16:52;8.33;69.52
67748;HTU21D;54543;50.712;6.070;2023-04-25T10:19:20;8.31;67.38
67748;HTU21D;54543;50.712;6.070;2023-04-25T10:21:52;8.29;68.65
67748;HTU21D;54543;50.712;6.070;2023-04-25T10:24:20;8.29;69.34
67748;HTU21D;54543;50.712;6.070;2023-04-25T10:26:47;8.31;68.65
67748;HTU21D;54543;50.712;6.070;2023-04-25T10:29:21;8.34;67.97
67748;HTU21D;54543;50.712;6.070;2023-04-25T10:31:48;8.38;68.69
67748;HTU21D;54543;50.712;6.070;2023-04-25T10:34:15;8.42;69.25
67748;HTU21D;54543;50.712;6.070;2023-04-25T10:36:42;8.45;68.97
67748;HTU21D;54543;50.712;6.070;2023-04-25T10:39:08;8.55;69.55
67748;HTU21D;54543;50.712;6.070;2023-04-25T10:41:51;8.64;69.28
67748;HTU21D;54543;50.712;6.070;2023-04-25T10:44:17;8.79;69.71
67748;HTU21D;54543;50.712;6.070;2023-04-25T10:46:44;8.87;68.81
67748;HTU21D;54543;50.712;6.070;2023-04-25T10:49:37;8.83;68.07
67748;HTU21D;54543;50.712;6.070;2023-04-25T10:52:14;8.89;69.00
67748;HTU21D;54543;50.712;6.070;2023-04-25T10:54:47;9.18;68.68
67748;HTU21D;54543;50.712;6.070;2023-04-25T10:57:38;9.57;67.76
67748;HTU21D;54543;50.712;6.070;2023-04-25T11:02:58;10.27;65.58
67748;HTU21D;54543;50.712;6.070;2023-04-25T11:05:35;10.33;65.19
67748;HTU21D;54543;50.712;6.070;2023-04-25T11:08:02;10.37;66.81
67748;HTU21D;54543;50.712;6.070;2023-04-25T11:10:31;10.50;66.77
67748;HTU21D;54543;50.712;6.070;2023-04-25T11:12:58;10.55;65.27
67748;HTU21D;54543;50.712;6.070;2023-04-25T11:15:24;10.57;66.18
67748;HTU21D;54543;50.712;6.070;2023-04-25T11:17:55;10.66;63.93
67748;HTU21D;54543;50.712;6.070;2023-04-25T11:20:21;10.71;64.69
67748;HTU21D;54543;50.712;6.070;2023-04-25T11:22:48;10.72;64.50
67748;HTU21D;54543;50.712;6.070;2023-04-25T11:25:15;10.68;64.57
67748;HTU21D;54543;50.712;6.070;2023-04-25T11:27:54;10.67;62.96
67748;HTU21D;54543;50.712;6.070;2023-04-25T11:30:22;10.64;62.76
67748;HTU21D;54543;50.712;6.070;2023-04-25T11:32:48;10.40;64.08
67748;HTU21D;54543;50.712;6.070;2023-04-25T11:35:13;10.18;64.56
67748;HTU21D;54543;50.712;6.070;2023-04-25T11:37:43;9.98;63.92
67748;HTU21D;54543;50.712;6.070;2023-04-25T11:40:09;9.76;64.36
67748;HTU21D;54543;50.712;6.070;2023-04-25T11:42:39;9.49;64.85
67748;HTU21D;54543;50.712;6.070;2023-04-25T11:45:06;9.35;65.29
67748;HTU21D;54543;50.712;6.070;2023-04-25T11:47:33;9.26;66.35
67748;HTU21D;54543;50.712;6.070;2023-04-25T11:49:59;9.17;66.72
67748;HTU21D;54543;50.712;6.070;2023-04-25T11:52:55;9.05;65.96
67748;HTU21D;54543;50.712;6.070;2023-04-25T11:55:21;8.95;66.31
67748;HTU21D;54543;50.712;6.070;2023-04-25T11:57:48;8.86;65.96
67748;HTU21D;54543;50.712;6.070;2023-04-25T12:00:20;8.82;64.43
67748;HTU21D;54543;50.712;6.070;2023-04-25T12:02:47;8.76;65.72
67748;HTU21D;54543;50.712;6.070;2023-04-25T12:05:16;8.74;66.04
67748;HTU21D;54543;50.712;6.070;2023-04-25T12:07:42;8.77;66.03
67748;HTU21D;54543;50.712;6.070;2023-04-25T12:10:13;8.74;62.94
67748;HTU21D;54543;50.712;6.070;2023-04-25T12:12:42;8.76;65.33
67748;HTU21D;54543;50.712;6.070;2023-04-25T12:17:38;8.98;66.27
67748;HTU21D;54543;50.712;6.070;2023-04-25T12:20:32;9.21;64.72
67748;HTU21D;54543;50.712;6.070;2023-04-25T12:22:57;9.45;65.37
67748;HTU21D;54543;50.712;6.070;2023-04-25T12:28:11;9.97;62.87
67748;HTU21D;54543;50.712;6.070;2023-04-25T12:33:23;10.33;63.76
67748;HTU21D;54543;50.712;6.070;2023-04-25T12:35:48;10.53;63.09
67748;HTU21D;54543;50.712;6.070;2023-04-25T12:38:24;10.82;60.81
67748;HTU21D;54543;50.712;6.070;2023-04-25T12:40:51;11.11;56.49
67748;HTU21D;54543;50.712;6.070;2023-04-25T12:43:16;11.32;58.14
67748;HTU21D;54543;50.712;6.070;2023-04-25T12:45:43;11.45;56.68
67748;HTU21D;54543;50.712;6.070;2023-04-25T12:48:09;11.64;55.91
67748;HTU21D;54543;50.712;6.070;2023-04-25T12:50:35;11.75;58.91
67748;HTU21D;54543;50.712;6.070;2023-04-25T12:53:00;11.93;56.84
67748;HTU21D;54543;50.712;6.070;2023-04-25T12:55:26;11.90;57.62
67748;HTU21D;54543;50.712;6.070;2023-04-25T12:57:52;11.86;59.05
67748;HTU21D;54543;50.712;6.070;2023-04-25T13:00:17;11.90;54.32
67748;HTU21D;54543;50.712;6.070;2023-04-25T13:02:45;11.82;54.66
67748;HTU21D;54543;50.712;6.070;2023-04-25T13:05:13;11.75;54.93
67748;HTU21D;54543;50.712;6.070;2023-04-25T13:07:39;11.66;56.39
67748;HTU21D;54543;50.712;6.070;2023-04-25T13:10:05;11.75;56.57
67748;HTU21D;54543;50.712;6.070;2023-04-25T13:12:31;11.84;57.51
67748;HTU21D;54543;50.712;6.070;2023-04-25T13:14:57;11.84;56.46
67748;HTU21D;54543;50.712;6.070;2023-04-25T13:17:23;11.75;54.84
67748;HTU21D;54543;50.712;6.070;2023-04-25T13:19:49;11.62;55.58
67748;HTU21D;54543;50.712;6.070;2023-04-25T13:22:14;11.49;56.15
67748;HTU21D;54543;50.712;6.070;2023-04-25T13:24:42;11.40;56.10
67748;HTU21D;54543;50.712;6.070;2023-04-25T13:27:08;11.56;56.06
67748;HTU21D;54543;50.712;6.070;2023-04-25T13:29:33;11.82;56.00
67748;HTU21D;54543;50.712;6.070;2023-04-25T13:32:01;12.02;53.50
67748;HTU21D;54543;50.712;6.070;2023-04-25T13:34:28;12.23;54.22
67748;HTU21D;54543;50.712;6.070;2023-04-25T13:36:54;12.45;52.59
67748;HTU21D;54543;50.712;6.070;2023-04-25T13:39:19;12.65;51.85
67748;HTU21D;54543;50.712;6.070;2023-04-25T13:41:45;12.88;51.11
67748;HTU21D;54543;50.712;6.070;2023-04-25T13:44:11;13.06;50.85
67748;HTU21D;54543;50.712;6.070;2023-04-25T13:46:37;13.15;50.69
67748;HTU21D;54543;50.712;6.070;2023-04-25T13:49:03;13.11;51.68
67748;HTU21D;54543;50.712;6.070;2023-04-25T13:51:29;13.12;49.34
67748;HTU21D;54543;50.712;6.070;2023-04-25T13:53:56;12.97;51.46
67748;HTU21D;54543;50.712;6.070;2023-04-25T13:56:22;12.58;51.46
67748;HTU21D;54543;50.712;6.070;2023-04-25T13:58:49;12.14;51.07
67748;HTU21D;54543;50.712;6.070;2023-04-25T14:01:15;11.69;47.34
67748;HTU21D;54543;50.712;6.070;2023-04-25T14:03:41;11.29;54.07
67748;HTU21D;54543;50.712;6.070;2023-04-25T14:06:07;10.95;55.29
67748;HTU21D;54543;50.712;6.070;2023-04-25T14:08:34;10.64;55.52
67748;HTU21D;54543;50.712;6.070;2023-04-25T14:11:00;10.20;56.79
67748;HTU21D;54543;50.712;6.070;2023-04-25T14:13:26;9.98;57.67
67748;HTU21D;54543;50.712;6.070;2023-04-25T14:15:52;9.81;58.58
67748;HTU21D;54543;50.712;6.070;2023-04-25T14:18:18;9.77;59.22
67748;HTU21D;54543;50.712;6.070;2023-04-25T14:20:45;9.67;59.21
67748;HTU21D;54543;50.712;6.070;2023-04-25T14:23:11;9.66;60.41
67748;HTU21D;54543;50.712;6.070;2023-04-25T14:25:37;9.68;60.49
67748;HTU21D;54543;50.712;6.070;2023-04-25T14:28:03;9.68;60.55
67748;HTU21D;54543;50.712;6.070;2023-04-25T14:30:29;9.71;60.70
67748;HTU21D;54543;50.712;6.070;2023-04-25T14:32:54;9.72;60.13
67748;HTU21D;54543;50.712;6.070;2023-04-25T14:35:20;9.70;59.41
67748;HTU21D;54543;50.712;6.070;2023-04-25T14:37:46;9.71;59.90
67748;HTU21D;54543;50.712;6.070;2023-04-25T14:40:13;9.75;59.71
67748;HTU21D;54543;50.712;6.070;2023-04-25T14:42:40;9.76;59.79
67748;HTU21D;54543;50.712;6.070;2023-04-25T14:45:07;9.82;60.52
67748;HTU21D;54543;50.712;6.070;2023-04-25T14:47:34;9.98;60.51
67748;HTU21D;54543;50.712;6.070;2023-04-25T14:50:00;10.16;59.57
67748;HTU21D;54543;50.712;6.070;2023-04-25T14:52:27;10.31;60.04
67748;HTU21D;54543;50.712;6.070;2023-04-25T14:54:52;10.48;59.56
67748;HTU21D;54543;50.712;6.070;2023-04-25T14:57:18;10.60;59.10
67748;HTU21D;54543;50.712;6.070;2023-04-25T14:59:43;10.66;59.66
67748;HTU21D;54543;50.712;6.070;2023-04-25T15:02:09;10.82;60.27
67748;HTU21D;54543;50.712;6.070;2023-04-25T15:04:35;11.30;62.82
67748;HTU21D;54543;50.712;6.070;2023-04-25T15:07:01;11.78;56.27
67748;HTU21D;54543;50.712;6.070;2023-04-25T15:09:26;12.08;59.99
67748;HTU21D;54543;50.712;6.070;2023-04-25T15:11:52;12.28;59.83
67748;HTU21D;54543;50.712;6.070;2023-04-25T15:14:18;12.42;56.87
67748;HTU21D;54543;50.712;6.070;2023-04-25T15:16:43;12.31;54.93
67748;HTU21D;54543;50.712;6.070;2023-04-25T15:19:09;12.10;57.72
67748;HTU21D;54543;50.712;6.070;2023-04-25T15:21:35;11.86;56.81
67748;HTU21D;54543;50.712;6.070;2023-04-25T15:24:01;11.47;56.81
67748;HTU21D;54543;50.712;6.070;2023-04-25T15:26:27;11.07;58.17
67748;HTU21D;54543;50.712;6.070;2023-04-25T15:28:53;10.75;57.81
67748;HTU21D;54543;50.712;6.070;2023-04-25T15:31:19;10.50;59.69
67748;HTU21D;54543;50.712;6.070;2023-04-25T15:33:44;10.38;60.60
67748;HTU21D;54543;50.712;6.070;2023-04-25T15:36:10;10.26;61.05
67748;HTU21D;54543;50.712;6.070;2023-04-25T15:38:36;10.10;61.18
67748;HTU21D;54543;50.712;6.070;2023-04-25T15:41:02;9.98;61.83